createdAt,value
2023-04-20T00:06:21.682Z,8.18
2023-04-20T00:12:50.500Z,8.14
2023-04-20T00:14:52.932Z,8.13
2023-04-20T00:17:05.997Z,8.12
2023-04-20T00:24:08.743Z,8.10
2023-04-20T00:28:37.481Z,8.10
2023-04-20T00:33:02.559Z,8.10
2023-04-20T00:37:30.864Z,8.08
2023-04-20T00:49:45.254Z,8.06
2023-04-20T01:08:51.412Z,8.04
2023-04-20T01:10:56.488Z,8.00
2023-04-20T01:13:00.428Z,8.01
2023-04-20T01:20:27.538Z,8.03
2023-04-20T01:33:58.437Z,8.04
2023-04-20T01:41:39.105Z,8.06
2023-04-20T01:53:15.784Z,8.01
2023-04-20T01:55:22.747Z,8.00
2023-04-20T02:03:03.792Z,8.01
2023-04-20T02:11:16.259Z,7.99
2023-04-20T02:13:59.489Z,7.99
2023-04-20T02:16:42.805Z,7.97
2023-04-20T02:23:33.035Z,7.96
2023-04-20T02:30:23.651Z,7.95
2023-04-20T02:37:56.527Z,7.98
2023-04-20T02:44:42.590Z,7.97
2023-04-20T02:54:36.298Z,7.98
2023-04-20T03:01:49.673Z,7.96
2023-04-20T03:04:09.621Z,7.97
2023-04-20T03:06:14.388Z,7.95
2023-04-20T03:18:52.751Z,7.97
2023-04-20T03:23:42.914Z,7.94
2023-04-20T03:26:01.287Z,7.96
2023-04-20T03:28:02.968Z,7.93
2023-04-20T03:30:12.267Z,7.91
2023-04-20T03:34:35.353Z,7.91
2023-04-20T03:36:38.655Z,7.91
2023-04-20T03:44:08.304Z,7.93
2023-04-20T04:00:38.406Z,7.95
2023-04-20T04:05:19.818Z,7.93
2023-04-20T04:09:43.325Z,7.93
2023-04-20T04:29:42.056Z,7.92
2023-04-20T04:35:05.143Z,7.93
2023-04-20T04:40:28.121Z,7.94
2023-04-20T06:27:20.587Z,8.94
2023-04-20T06:40:54.758Z,9.15
2023-04-20T06:42:59.775Z,9.20
2023-04-20T06:45:05.167Z,9.24
2023-04-20T06:49:28.918Z,9.35
2023-04-20T07:01:02.463Z,9.73
2023-04-20T07:03:08.651Z,9.78
2023-04-20T07:12:22.283Z,10.08
2023-04-20T07:14:26.317Z,10.11
2023-04-20T07:16:45.893Z,10.17
2023-04-20T07:18:47.549Z,10.21
2023-04-20T07:23:16.206Z,10.31
2023-04-20T07:25:20.945Z,10.34
2023-04-20T07:27:22.905Z,10.34
2023-04-20T07:29:26.848Z,10.39
2023-04-20T07:31:34.178Z,10.43
2023-04-20T07:33:51.300Z,10.50
2023-04-20T07:35:52.873Z,10.62
2023-04-20T07:38:00.848Z,10.68
2023-04-20T07:42:23.815Z,10.85
2023-04-20T07:46:47.692Z,11.03
2023-04-20T07:56:26.477Z,11.35
2023-04-20T07:58:28.008Z,11.36
2023-04-20T08:00:35.921Z,11.43
2023-04-20T08:02:37.918Z,11.46
2023-04-20T08:04:40.275Z,11.52
2023-04-20T08:06:42.835Z,11.58
2023-04-20T08:08:49.691Z,11.66
2023-04-20T08:10:51.899Z,11.79
2023-04-20T08:13:01.378Z,11.86
2023-04-20T08:15:07.565Z,11.93
2023-04-20T08:17:10.732Z,11.98
2023-04-20T08:21:16.302Z,12.10
2023-04-20T08:23:19.669Z,12.17
2023-04-20T08:25:21.213Z,12.27
2023-04-20T08:27:23.817Z,12.36
2023-04-20T08:29:25.543Z,12.44
2023-04-20T08:31:33.858Z,12.51
2023-04-20T08:33:36.862Z,12.58
2023-04-20T08:35:38.514Z,12.64
2023-04-20T08:37:40.282Z,12.69
2023-04-20T08:39:42.124Z,12.75
2023-04-20T08:41:43.862Z,12.82
2023-04-20T08:43:45.437Z,12.86
2023-04-20T08:45:49.460Z,12.92
2023-04-20T08:47:52.833Z,12.94
2023-04-20T08:49:56.613Z,12.98
2023-04-20T08:51:58.633Z,12.98
2023-04-20T08:54:05.295Z,12.97
2023-04-20T08:56:07.902Z,12.96
2023-04-20T08:58:09.659Z,12.95
2023-04-20T09:00:13.746Z,12.94
2023-04-20T09:02:15.909Z,12.90
2023-04-20T09:04:20.084Z,12.85
2023-04-20T09:06:23.483Z,12.79
2023-04-20T09:08:34.912Z,12.72
2023-04-20T09:10:41.397Z,12.61
2023-04-20T09:12:43.157Z,12.55
2023-04-20T09:14:46.308Z,12.49
2023-04-20T09:16:52.133Z,12.43
2023-04-20T09:18:55.147Z,12.37
2023-04-20T09:20:56.725Z,12.35
2023-04-20T09:23:11.047Z,12.34
2023-04-20T09:25:13.911Z,12.30
2023-04-20T09:27:16.606Z,12.27
2023-04-20T09:29:19.381Z,12.21
2023-04-20T09:31:23.017Z,12.16
2023-04-20T09:33:28.316Z,12.12
2023-04-20T09:35:30.159Z,12.07
2023-04-20T09:37:31.913Z,12.03
2023-04-20T09:39:36.236Z,12.01
2023-04-20T09:41:40.347Z,12.00
2023-04-20T09:43:42.963Z,11.99
2023-04-20T09:45:44.796Z,11.98
2023-04-20T09:47:47.999Z,11.99
2023-04-20T09:55:23.549Z,12.11
2023-04-20T09:57:26.125Z,12.14
2023-04-20T09:59:27.806Z,12.15
2023-04-20T10:01:31.163Z,12.19
2023-04-20T10:03:41.978Z,12.25
2023-04-20T10:05:44.121Z,12.29
2023-04-20T10:07:45.880Z,12.36
2023-04-20T10:09:47.442Z,12.49
2023-04-20T10:11:54.015Z,12.59
2023-04-20T10:13:57.404Z,12.67
2023-04-20T10:15:59.031Z,12.78
2023-04-20T10:18:00.860Z,12.83
2023-04-20T10:20:02.759Z,12.93
2023-04-20T10:22:05.065Z,13.03
2023-04-20T10:24:07.152Z,13.15
2023-04-20T10:26:09.125Z,13.28
2023-04-20T10:28:12.316Z,13.43
2023-04-20T10:30:15.265Z,13.56
2023-04-20T10:32:27.819Z,13.77
2023-04-20T10:34:34.410Z,13.92
2023-04-20T10:36:38.382Z,14.08
2023-04-20T10:38:40.242Z,14.19
2023-04-20T10:40:53.629Z,14.37
2023-04-20T10:43:02.785Z,14.46
2023-04-20T10:45:06.984Z,14.59
2023-04-20T10:47:08.749Z,14.71
2023-04-20T10:49:10.385Z,14.85
2023-04-20T10:51:12.134Z,14.96
2023-04-20T10:53:20.842Z,15.03
2023-04-20T10:55:24.431Z,15.11
2023-04-20T10:57:26.463Z,15.19
2023-04-20T10:59:28.762Z,15.24
2023-04-20T11:01:32.347Z,15.31
2023-04-20T11:03:34.314Z,15.34
2023-04-20T11:05:36.182Z,15.31
2023-04-20T11:07:47.545Z,15.32
2023-04-20T11:09:54.282Z,15.34
2023-04-20T11:11:59.512Z,15.34
2023-04-20T11:14:08.325Z,15.39
2023-04-20T11:16:11.914Z,15.42
2023-04-20T11:18:14.996Z,15.43
2023-04-20T11:20:16.656Z,15.41
2023-04-20T11:22:22.158Z,15.39
2023-04-20T11:24:25.655Z,15.36
2023-04-20T11:26:35.103Z,15.35
2023-04-20T11:28:36.737Z,15.37
2023-04-20T11:30:42.312Z,15.35
2023-04-20T11:32:54.435Z,15.37
2023-04-20T11:37:07.745Z,15.35
2023-04-20T11:39:09.676Z,15.36
2023-04-20T11:41:11.279Z,15.37
2023-04-20T11:43:12.866Z,15.39
2023-04-20T11:45:14.556Z,15.45
2023-04-20T11:47:16.101Z,15.52
2023-04-20T11:49:17.920Z,15.57
2023-04-20T11:51:21.104Z,15.64
2023-04-20T11:53:22.695Z,15.71
2023-04-20T11:55:24.323Z,15.76
2023-04-20T11:57:26.129Z,15.83
2023-04-20T11:59:27.874Z,15.89
2023-04-20T12:01:29.488Z,15.97
2023-04-20T12:03:31.231Z,16.05
2023-04-20T12:05:32.957Z,16.13
2023-04-20T12:07:35.939Z,16.20
2023-04-20T12:09:37.655Z,16.26
2023-04-20T12:11:39.308Z,16.32
2023-04-20T12:13:40.848Z,16.36
2023-04-20T12:15:42.590Z,16.38
2023-04-20T12:17:44.342Z,16.39
2023-04-20T12:19:46.062Z,16.41
2023-04-20T12:21:47.626Z,16.44
2023-04-20T12:23:50.570Z,16.48
2023-04-20T12:25:52.376Z,16.53
2023-04-20T12:27:54.001Z,16.60
2023-04-20T12:29:55.668Z,16.64
2023-04-20T12:31:57.358Z,16.68
2023-04-20T12:33:59.478Z,16.70
2023-04-20T12:36:01.117Z,16.73
2023-04-20T12:38:02.987Z,16.77
2023-04-20T12:40:07.610Z,16.80
2023-04-20T12:42:09.177Z,16.81
2023-04-20T12:46:12.450Z,16.86
2023-04-20T12:48:14.475Z,16.88
2023-04-20T12:50:16.082Z,16.89
2023-04-20T12:52:17.722Z,16.90
2023-04-20T12:54:19.634Z,16.88
2023-04-20T12:56:22.796Z,16.89
2023-04-20T12:58:24.413Z,16.90
2023-04-20T13:00:26.153Z,16.94
2023-04-20T13:02:27.939Z,16.96
2023-04-20T13:04:32.678Z,16.96
2023-04-20T13:06:34.324Z,16.97
2023-04-20T13:08:36.184Z,16.98
2023-04-20T13:10:39.898Z,16.97
2023-04-20T13:12:42.841Z,16.97
2023-04-20T13:14:44.585Z,16.98
2023-04-20T13:16:46.256Z,16.99
2023-04-20T13:18:48.025Z,17.01
2023-04-20T13:20:49.602Z,17.04
2023-04-20T13:22:57.471Z,17.05
2023-04-20T13:24:59.823Z,17.08
2023-04-20T13:27:01.461Z,17.07
2023-04-20T13:29:04.383Z,17.06
2023-04-20T13:31:06.083Z,17.06
2023-04-20T13:33:07.857Z,17.03
2023-04-20T13:35:09.744Z,17.03
2023-04-20T13:37:11.494Z,17.03
2023-04-20T13:39:13.378Z,17.03
2023-04-20T13:41:14.956Z,16.99
2023-04-20T13:43:16.630Z,16.96
2023-04-20T13:45:19.892Z,16.92
2023-04-20T13:47:21.740Z,16.91
2023-04-20T13:49:23.257Z,16.91
2023-04-20T13:51:24.917Z,16.91
2023-04-20T13:53:26.504Z,16.92
2023-04-20T13:55:28.076Z,16.92
2023-04-20T13:57:29.699Z,16.96
2023-04-20T13:59:31.378Z,16.98
2023-04-20T14:01:34.754Z,16.98
2023-04-20T14:03:36.539Z,17.00
2023-04-20T14:05:38.747Z,17.02
2023-04-20T14:07:40.512Z,17.04
2023-04-20T14:09:42.135Z,17.02
2023-04-20T14:11:43.819Z,16.95
2023-04-20T14:13:45.427Z,16.92
2023-04-20T14:15:47.003Z,16.88
2023-04-20T14:17:52.218Z,16.84
2023-04-20T14:19:54.144Z,16.84
2023-04-20T14:21:55.713Z,16.84
2023-04-20T14:23:57.371Z,16.84
2023-04-20T14:25:59.276Z,16.83
2023-04-20T14:28:01.054Z,16.82
2023-04-20T14:30:03.388Z,16.82
2023-04-20T14:32:05.152Z,16.80
2023-04-20T14:34:09.476Z,16.78
2023-04-20T14:36:11.120Z,16.75
2023-04-20T14:38:12.768Z,16.73
2023-04-20T14:40:14.446Z,16.72
2023-04-20T14:42:16.060Z,16.73
2023-04-20T14:44:17.963Z,16.74
2023-04-20T14:46:19.890Z,16.73
2023-04-20T14:48:21.527Z,16.75
2023-04-20T14:50:26.313Z,16.74
2023-04-20T14:52:27.898Z,16.74
2023-04-20T14:54:29.583Z,16.70
2023-04-20T14:56:31.316Z,16.71
2023-04-20T14:58:33.078Z,16.70
2023-04-20T15:00:34.777Z,16.69
2023-04-20T15:02:36.702Z,16.71
2023-04-20T15:04:38.915Z,16.73
2023-04-20T15:06:42.115Z,16.72
2023-04-20T15:08:43.668Z,16.71
2023-04-20T15:10:45.356Z,16.71
2023-04-20T15:12:48.055Z,16.70
2023-04-20T15:14:49.958Z,16.70
2023-04-20T15:16:52.708Z,16.68
2023-04-20T15:18:54.390Z,16.66
2023-04-20T15:20:56.138Z,16.66
2023-04-20T15:22:59.052Z,16.66
2023-04-20T15:25:00.880Z,16.63
2023-04-20T15:27:03.957Z,16.60
2023-04-20T15:29:07.429Z,16.57
2023-04-20T15:31:08.970Z,16.55
2023-04-20T15:33:13.521Z,16.57
2023-04-20T15:35:15.128Z,16.57
2023-04-20T15:37:16.968Z,16.60
2023-04-20T15:39:19.921Z,16.61
2023-04-20T15:41:21.593Z,16.59
2023-04-20T15:43:23.108Z,16.60
2023-04-20T15:45:25.182Z,16.55
2023-04-20T15:47:26.754Z,16.53
2023-04-20T15:49:28.596Z,16.52
2023-04-20T15:51:30.189Z,16.49
2023-04-20T15:53:31.742Z,16.47
2023-04-20T15:55:38.056Z,16.46
2023-04-20T15:57:39.641Z,16.43
2023-04-20T15:59:41.198Z,16.43
2023-04-20T16:01:43.066Z,16.43
2023-04-20T16:03:46.034Z,16.42
2023-04-20T16:05:48.264Z,16.38
2023-04-20T16:07:49.995Z,16.33
2023-04-20T16:09:51.687Z,16.27
2023-04-20T16:11:57.898Z,16.22
2023-04-20T16:14:02.647Z,16.16
2023-04-20T16:16:07.927Z,16.11
2023-04-20T16:18:09.666Z,16.08
2023-04-20T16:20:12.360Z,16.04
2023-04-20T16:22:14.010Z,15.97
2023-04-20T16:24:16.018Z,15.90
2023-04-20T16:26:17.697Z,15.83
2023-04-20T16:28:20.539Z,15.73
2023-04-20T16:30:22.450Z,15.65
2023-04-20T16:32:24.393Z,15.54
2023-04-20T16:34:26.018Z,15.49
2023-04-20T16:36:27.669Z,15.39
2023-04-20T16:38:29.395Z,15.32
2023-04-20T16:40:30.974Z,15.26
2023-04-20T16:42:32.609Z,15.21
2023-04-20T16:44:35.624Z,15.15
2023-04-20T16:46:37.265Z,15.11
2023-04-20T16:48:38.845Z,15.06
2023-04-20T16:50:42.266Z,15.00
2023-04-20T16:52:43.939Z,14.97
2023-04-20T16:54:45.765Z,14.92
2023-04-20T16:56:47.357Z,14.86
2023-04-20T16:58:49.016Z,14.80
2023-04-20T17:00:55.455Z,14.75
2023-04-20T17:02:57.920Z,14.68
2023-04-20T17:05:01.363Z,14.60
2023-04-20T17:07:02.877Z,14.55
2023-04-20T17:09:04.514Z,14.50
2023-04-20T17:11:06.540Z,14.45
2023-04-20T17:13:08.193Z,14.43
2023-04-20T17:15:10.750Z,14.37
2023-04-20T17:17:13.692Z,14.35
2023-04-20T17:19:15.332Z,14.31
2023-04-20T17:21:17.034Z,14.30
2023-04-20T17:23:19.180Z,14.29
2023-04-20T17:25:20.819Z,14.30
2023-04-20T17:27:22.587Z,14.30
2023-04-20T17:29:24.331Z,14.29
2023-04-20T17:31:26.047Z,14.30
2023-04-20T17:33:29.048Z,14.26
2023-04-20T17:35:34.442Z,14.25
2023-04-20T17:37:37.437Z,14.22
2023-04-20T17:39:39.027Z,14.18
2023-04-20T17:41:40.740Z,14.12
2023-04-20T17:43:42.474Z,14.07
2023-04-20T17:45:44.134Z,14.04
2023-04-20T17:47:45.924Z,13.96
2023-04-20T17:49:48.820Z,13.91
2023-04-20T17:51:50.606Z,13.85
2023-04-20T17:53:52.341Z,13.74
2023-04-20T17:55:53.963Z,13.64
2023-04-20T17:57:55.825Z,13.54
2023-04-20T17:59:57.491Z,13.45
2023-04-20T18:01:59.172Z,13.36
2023-04-20T18:04:04.393Z,13.28
2023-04-20T18:06:07.554Z,13.18
2023-04-20T18:08:09.087Z,13.09
2023-04-20T18:10:11.659Z,13.00
2023-04-20T18:12:13.208Z,12.94
2023-04-20T18:14:14.774Z,12.86
2023-04-20T18:16:16.367Z,12.79
2023-04-20T18:18:17.987Z,12.70
2023-04-20T18:20:19.776Z,12.60
2023-04-20T18:22:23.013Z,12.53
2023-04-20T18:24:24.576Z,12.46
2023-04-20T18:26:26.324Z,12.38
2023-04-20T18:28:27.961Z,12.29
2023-04-20T18:30:29.646Z,12.22
2023-04-20T18:32:31.674Z,12.15
2023-04-20T18:34:33.386Z,12.08
2023-04-20T18:36:34.914Z,11.99
2023-04-20T18:38:37.892Z,11.93
2023-04-20T18:40:39.515Z,11.86
2023-04-20T18:42:41.280Z,11.81
2023-04-20T18:44:42.880Z,11.74
2023-04-20T18:46:44.973Z,11.69
2023-04-20T18:48:46.837Z,11.63
2023-04-20T18:50:48.540Z,11.59
2023-04-20T18:52:50.169Z,11.53
2023-04-20T18:54:53.241Z,11.49
2023-04-20T18:56:54.883Z,11.43
2023-04-20T18:58:56.527Z,11.36
2023-04-20T19:00:58.398Z,11.31
2023-04-20T19:03:00.174Z,11.24
2023-04-20T19:05:01.929Z,11.20
2023-04-20T19:07:03.473Z,11.15
2023-04-20T19:09:08.324Z,11.08
2023-04-20T19:11:11.465Z,11.04
2023-04-20T19:13:13.005Z,10.99
2023-04-20T19:15:14.551Z,10.94
2023-04-20T19:17:16.410Z,10.89
2023-04-20T19:19:18.200Z,10.85
2023-04-20T19:21:21.671Z,10.81
2023-04-20T19:23:23.669Z,10.75
2023-04-20T19:25:25.272Z,10.73
2023-04-20T19:27:28.235Z,10.70
2023-04-20T19:29:29.755Z,10.66
2023-04-20T19:31:31.714Z,10.62
2023-04-20T19:33:33.292Z,10.60
2023-04-20T19:35:34.905Z,10.56
2023-04-20T19:37:36.556Z,10.52
2023-04-20T19:39:38.095Z,10.49
2023-04-20T19:41:39.856Z,10.45
2023-04-20T19:43:42.740Z,10.42
2023-04-20T19:45:44.390Z,10.39
2023-04-20T19:47:46.052Z,10.36
2023-04-20T19:49:48.078Z,10.32
2023-04-20T19:51:49.837Z,10.31
2023-04-20T19:53:51.950Z,10.29
2023-04-20T19:55:53.630Z,10.25
2023-04-20T19:57:55.353Z,10.22
2023-04-20T19:59:58.312Z,10.19
2023-04-20T20:02:00.080Z,10.16
2023-04-20T20:04:02.255Z,10.14
2023-04-20T20:06:04.151Z,10.11
2023-04-20T20:08:05.859Z,10.07
2023-04-20T20:10:07.933Z,10.02
2023-04-20T20:12:09.586Z,10.00
2023-04-20T20:14:11.243Z,9.95
2023-04-20T20:16:14.177Z,9.94
2023-04-20T20:18:15.930Z,9.92
2023-04-20T20:20:17.669Z,9.89
2023-04-20T20:22:19.375Z,9.86
2023-04-20T20:24:20.918Z,9.82
2023-04-20T20:26:22.478Z,9.78
2023-04-20T20:28:24.112Z,9.77
2023-04-20T20:30:25.932Z,9.74
2023-04-20T20:32:28.859Z,9.72
2023-04-20T20:34:30.458Z,9.71
2023-04-20T20:36:32.044Z,9.70
2023-04-20T20:38:35.847Z,9.69
2023-04-20T20:40:38.653Z,9.67
2023-04-20T20:42:40.825Z,9.66
2023-04-20T20:44:42.524Z,9.64
2023-04-20T20:46:44.342Z,9.61
2023-04-20T20:48:47.309Z,9.59
2023-04-20T20:50:48.969Z,9.58
2023-04-20T20:52:50.482Z,9.57
2023-04-20T20:54:52.239Z,9.55
2023-04-20T20:56:56.995Z,9.55
2023-04-20T20:58:58.647Z,9.51
2023-04-20T21:01:00.328Z,9.51
2023-04-20T21:03:02.218Z,9.50
2023-04-20T21:05:06.266Z,9.49
2023-04-20T21:07:08.091Z,9.47
2023-04-20T21:09:09.645Z,9.46
2023-04-20T21:11:11.243Z,9.44
2023-04-20T21:13:12.830Z,9.44
2023-04-20T21:15:14.517Z,9.43
2023-04-20T21:17:16.058Z,9.43
2023-04-20T21:19:18.114Z,9.42
2023-04-20T21:21:21.274Z,9.41
2023-04-20T21:23:22.942Z,9.41
2023-04-20T21:25:24.917Z,9.40
2023-04-20T21:27:26.655Z,9.39
2023-04-20T21:29:28.283Z,9.38
2023-04-20T21:31:29.953Z,9.39
2023-04-20T21:33:33.410Z,9.38
2023-04-20T21:35:35.013Z,9.39
2023-04-20T21:37:38.064Z,9.38
2023-04-20T21:39:39.704Z,9.38
2023-04-20T21:41:41.482Z,9.38
2023-04-20T21:43:43.547Z,9.38
2023-04-20T21:45:45.264Z,9.37
2023-04-20T21:47:46.859Z,9.38
2023-04-20T21:49:48.793Z,9.36
2023-04-20T21:51:50.560Z,9.36
2023-04-20T21:53:53.485Z,9.36
2023-04-20T21:55:55.233Z,9.35
2023-04-20T21:57:56.807Z,9.36
2023-04-20T21:59:58.448Z,9.35
2023-04-20T22:02:00.247Z,9.33
2023-04-20T22:04:02.047Z,9.34
2023-04-20T22:06:04.162Z,9.34
2023-04-20T22:08:05.917Z,9.32
2023-04-20T22:10:10.137Z,9.33
2023-04-20T22:12:11.677Z,9.32
2023-04-20T22:14:13.304Z,9.31
2023-04-20T22:16:15.021Z,9.32
2023-04-20T22:18:16.569Z,9.29
2023-04-20T22:20:18.401Z,9.30
2023-04-20T22:22:19.932Z,9.29
2023-04-20T22:24:21.490Z,9.29
2023-04-20T22:26:24.462Z,9.29
2023-04-20T22:28:26.133Z,9.28
2023-04-20T22:30:28.077Z,9.26
2023-04-20T22:32:30.001Z,9.25
2023-04-20T22:34:31.682Z,9.25
2023-04-20T22:36:33.253Z,9.24
2023-04-20T22:38:35.323Z,9.21
2023-04-20T22:40:37.110Z,9.21
2023-04-20T22:42:40.145Z,9.19
2023-04-20T22:44:41.733Z,9.17
2023-04-20T22:46:43.484Z,9.15
2023-04-20T22:48:45.970Z,9.15
2023-04-20T22:50:49.864Z,9.13
2023-04-20T22:52:51.425Z,9.12
2023-04-20T22:54:53.025Z,9.11
2023-04-20T22:56:54.886Z,9.09
2023-04-20T22:58:57.784Z,9.08
2023-04-20T23:01:00.008Z,9.07
2023-04-20T23:03:01.792Z,9.05
2023-04-20T23:05:03.958Z,9.04
2023-04-20T23:07:05.732Z,9.03
2023-04-20T23:09:07.342Z,9.01
2023-04-20T23:11:08.945Z,9.00
2023-04-20T23:13:10.460Z,8.98
2023-04-20T23:15:13.754Z,8.97
2023-04-20T23:17:15.264Z,8.95
2023-04-20T23:19:17.111Z,8.94
2023-04-20T23:21:18.978Z,8.92
2023-04-20T23:23:20.640Z,8.91
2023-04-20T23:25:22.177Z,8.91
2023-04-20T23:27:23.731Z,8.87
2023-04-20T23:29:25.515Z,8.88
2023-04-20T23:31:28.610Z,8.87
2023-04-20T23:33:30.241Z,8.87
2023-04-20T23:35:32.013Z,8.85
2023-04-20T23:37:33.540Z,8.85
2023-04-20T23:39:36.662Z,8.83
2023-04-20T23:41:38.393Z,8.82
2023-04-20T23:43:40.420Z,8.81
2023-04-20T23:45:42.014Z,8.79
2023-04-20T23:47:45.075Z,8.76
2023-04-20T23:49:46.709Z,8.75
2023-04-20T23:51:48.283Z,8.73
2023-04-20T23:53:49.868Z,8.73
2023-04-20T23:55:51.520Z,8.71
2023-04-20T23:57:53.264Z,8.69
2023-04-20T23:59:54.834Z,8.69
